createdAt,value
2022-09-18T00:01:44.283Z,10.60
2022-09-18T00:04:15.102Z,10.63
2022-09-18T00:06:45.491Z,10.66
2022-09-18T00:09:15.820Z,10.52
2022-09-18T00:11:46.025Z,10.49
2022-09-18T00:14:18.552Z,10.48
2022-09-18T00:16:47.268Z,10.42
2022-09-18T00:19:19.314Z,10.44
2022-09-18T00:21:50.765Z,10.46
2022-09-18T00:24:20.481Z,10.35
2022-09-18T00:26:50.312Z,10.33
2022-09-18T00:29:20.280Z,10.33
2022-09-18T00:31:48.903Z,10.28
2022-09-18T00:34:17.305Z,10.29
2022-09-18T00:36:48.977Z,10.28
2022-09-18T00:39:17.372Z,10.36
2022-09-18T00:41:46.260Z,10.30
2022-09-18T00:44:38.445Z,10.24
2022-09-18T00:47:17.704Z,10.27
2022-09-18T00:49:49.533Z,10.30
2022-09-18T00:52:21.959Z,10.22
2022-09-18T00:54:56.305Z,10.27
2022-09-18T00:57:29.276Z,10.31
2022-09-18T00:59:59.337Z,10.31
2022-09-18T01:02:27.691Z,10.33
2022-09-18T01:04:56.723Z,10.33
2022-09-18T01:07:39.062Z,10.27
2022-09-18T01:10:21.428Z,10.27
2022-09-18T01:12:56.175Z,10.20
2022-09-18T01:15:32.074Z,10.24
2022-09-18T01:18:07.606Z,10.29
2022-09-18T01:21:05.582Z,10.36
2022-09-18T01:24:21.941Z,10.38
2022-09-18T01:27:00.366Z,10.38
2022-09-18T01:29:38.592Z,10.39
2022-09-18T01:32:12.709Z,10.46
2022-09-18T01:34:48.232Z,10.47
2022-09-18T01:37:24.123Z,10.60
2022-09-18T01:39:56.835Z,10.65
2022-09-18T01:42:30.029Z,10.60
2022-09-18T01:45:03.048Z,10.63
2022-09-18T01:47:37.527Z,10.58
2022-09-18T01:50:08.592Z,10.55
2022-09-18T01:52:41.531Z,10.52
2022-09-18T01:55:16.919Z,10.57
2022-09-18T01:57:51.188Z,10.56
2022-09-18T02:00:22.978Z,10.57
2022-09-18T02:02:56.320Z,10.54
2022-09-18T02:05:28.740Z,10.54
2022-09-18T02:08:05.897Z,10.50
2022-09-18T02:10:39.543Z,10.43
2022-09-18T02:13:10.032Z,10.43
2022-09-18T02:15:42.987Z,10.39
2022-09-18T02:18:16.620Z,10.35
2022-09-18T02:20:46.573Z,10.41
2022-09-18T02:23:15.703Z,10.43
2022-09-18T02:25:47.332Z,10.37
2022-09-18T02:28:21.422Z,10.36
2022-09-18T02:30:51.311Z,10.33
2022-09-18T02:33:27.907Z,10.30
2022-09-18T02:36:22.201Z,10.32
2022-09-18T02:38:57.960Z,10.31
2022-09-18T02:41:35.168Z,10.36
2022-09-18T02:44:10.135Z,10.33
2022-09-18T02:46:50.599Z,10.25
2022-09-18T02:49:29.665Z,10.26
2022-09-18T02:52:08.117Z,10.27
2022-09-18T02:54:43.129Z,10.35
2022-09-18T02:57:17.091Z,10.39
2022-09-18T02:59:50.787Z,10.30
2022-09-18T03:02:21.102Z,10.33
2022-09-18T03:04:51.500Z,10.39
2022-09-18T03:07:20.894Z,10.43
2022-09-18T03:09:49.468Z,10.48
2022-09-18T03:12:20.689Z,10.49
2022-09-18T03:14:49.158Z,10.36
2022-09-18T03:17:18.203Z,10.28
2022-09-18T03:19:48.777Z,10.26
2022-09-18T03:22:17.547Z,10.22
2022-09-18T03:24:46.034Z,10.23
2022-09-18T03:27:14.323Z,10.30
2022-09-18T03:29:43.073Z,10.32
2022-09-18T03:32:11.941Z,10.46
2022-09-18T03:34:41.545Z,10.50
2022-09-18T03:37:15.278Z,10.67
2022-09-18T03:39:48.443Z,10.77
2022-09-18T03:42:17.022Z,10.82
2022-09-18T03:44:48.209Z,10.84
2022-09-18T03:47:19.409Z,10.86
2022-09-18T03:49:50.987Z,10.81
2022-09-18T03:52:20.841Z,10.85
2022-09-18T03:54:52.695Z,10.90
2022-09-18T03:57:21.024Z,10.92
2022-09-18T03:59:51.082Z,10.92
2022-09-18T04:02:19.931Z,10.91
2022-09-18T04:04:50.418Z,10.86
2022-09-18T04:07:20.912Z,10.87
2022-09-18T04:09:52.023Z,10.81
2022-09-18T04:12:20.583Z,10.87
2022-09-18T04:14:52.023Z,10.79
2022-09-18T04:17:21.144Z,10.80
2022-09-18T04:19:53.446Z,10.81
2022-09-18T04:22:24.885Z,10.83
2022-09-18T04:24:56.441Z,10.82
2022-09-18T04:27:24.872Z,10.80
2022-09-18T04:29:56.598Z,10.70
2022-09-18T04:32:24.951Z,10.66
2022-09-18T04:34:54.507Z,10.61
2022-09-18T04:37:24.805Z,10.61
2022-09-18T04:39:55.444Z,10.61
2022-09-18T04:42:23.787Z,10.64
2022-09-18T04:44:52.424Z,10.61
2022-09-18T04:47:21.142Z,10.53
2022-09-18T04:49:49.510Z,10.42
2022-09-18T04:52:19.339Z,10.36
2022-09-18T04:54:49.208Z,10.30
2022-09-18T04:57:17.849Z,10.29
2022-09-18T04:59:46.319Z,10.26
2022-09-18T05:02:22.593Z,10.37
2022-09-18T05:04:51.211Z,10.40
2022-09-18T05:07:19.754Z,10.43
2022-09-18T05:09:51.699Z,10.51
2022-09-18T05:12:20.125Z,10.55
2022-09-18T05:14:48.406Z,10.49
2022-09-18T05:17:16.979Z,10.43
2022-09-18T05:19:45.714Z,10.41
2022-09-18T05:22:14.848Z,10.41
2022-09-18T05:24:43.365Z,10.43
2022-09-18T05:27:13.806Z,10.44
2022-09-18T05:29:45.385Z,10.44
2022-09-18T05:32:13.629Z,10.60
2022-09-18T05:34:43.185Z,10.64
2022-09-18T05:37:12.144Z,10.64
2022-09-18T05:39:41.065Z,10.64
2022-09-18T05:42:09.808Z,10.60
2022-09-18T05:44:39.500Z,10.64
2022-09-18T05:47:08.178Z,10.70
2022-09-18T05:49:36.550Z,10.72
2022-09-18T05:52:05.470Z,10.72
2022-09-18T05:54:36.268Z,10.72
2022-09-18T05:57:05.138Z,10.66
2022-09-18T05:59:33.535Z,10.71
2022-09-18T06:02:03.437Z,10.82
2022-09-18T06:04:32.101Z,10.75
2022-09-18T06:07:01.783Z,10.67
2022-09-18T06:09:30.185Z,10.73
2022-09-18T06:11:59.316Z,10.75
2022-09-18T06:14:28.694Z,10.78
2022-09-18T06:16:57.145Z,10.88
2022-09-18T06:19:30.508Z,11.06
2022-09-18T06:21:59.082Z,11.07
2022-09-18T06:24:27.901Z,10.92
2022-09-18T06:26:56.958Z,11.02
2022-09-18T06:29:25.669Z,11.11
2022-09-18T06:31:54.133Z,11.23
2022-09-18T06:34:25.040Z,11.21
2022-09-18T06:36:54.609Z,11.39
2022-09-18T06:39:23.060Z,11.62
2022-09-18T06:41:51.697Z,11.75
2022-09-18T06:44:20.099Z,11.55
2022-09-18T06:46:48.956Z,11.51
2022-09-18T06:49:17.957Z,11.52
2022-09-18T06:51:48.891Z,11.58
2022-09-18T06:54:18.972Z,12.20
2022-09-18T06:56:49.577Z,12.65
2022-09-18T06:59:18.176Z,12.00
2022-09-18T07:01:48.401Z,11.79
2022-09-18T07:04:16.965Z,11.81
2022-09-18T07:06:47.374Z,11.63
2022-09-18T07:09:15.652Z,12.52
2022-09-18T07:11:48.293Z,13.05
2022-09-18T07:14:16.675Z,12.95
2022-09-18T07:16:45.096Z,12.89
2022-09-18T07:19:13.506Z,12.69
2022-09-18T07:21:41.836Z,12.56
2022-09-18T07:24:10.397Z,12.05
2022-09-18T07:26:39.435Z,12.13
2022-09-18T07:29:12.374Z,12.16
2022-09-18T07:31:40.733Z,12.39
2022-09-18T07:34:09.654Z,13.39
2022-09-18T07:36:38.036Z,14.33
2022-09-18T07:39:06.857Z,14.61
2022-09-18T07:41:35.326Z,14.45
2022-09-18T07:44:03.848Z,13.74
2022-09-18T07:46:33.791Z,13.75
2022-09-18T07:49:02.701Z,13.62
2022-09-18T07:51:31.153Z,14.28
2022-09-18T07:54:00.534Z,14.59
2022-09-18T07:56:28.965Z,14.97
2022-09-18T07:58:57.232Z,14.42
2022-09-18T08:01:26.983Z,14.19
2022-09-18T08:03:59.678Z,13.74
2022-09-18T08:06:28.816Z,14.18
2022-09-18T08:08:57.484Z,15.76
2022-09-18T08:11:26.168Z,16.11
2022-09-18T08:13:54.964Z,15.55
2022-09-18T08:16:23.875Z,15.92
2022-09-18T08:18:52.461Z,14.49
2022-09-18T08:21:22.308Z,14.11
2022-09-18T08:23:55.291Z,14.73
2022-09-18T08:26:24.922Z,14.43
2022-09-18T08:28:53.359Z,13.88
2022-09-18T08:31:33.497Z,13.08
2022-09-18T08:34:05.745Z,12.74
2022-09-18T08:36:58.409Z,12.73
2022-09-18T08:39:35.730Z,12.48
2022-09-18T08:42:49.733Z,12.34
2022-09-18T08:45:48.217Z,12.16
2022-09-18T08:48:37.837Z,12.11
2022-09-18T08:51:36.076Z,12.22
2022-09-18T08:54:23.940Z,12.80
2022-09-18T08:56:53.626Z,12.83
2022-09-18T08:59:30.463Z,13.25
2022-09-18T09:02:15.044Z,14.01
2022-09-18T09:04:52.625Z,14.77
2022-09-18T09:07:40.655Z,14.42
2022-09-18T09:10:26.602Z,14.80
2022-09-18T09:13:13.424Z,14.94
2022-09-18T09:15:56.297Z,15.47
2022-09-18T09:18:34.133Z,15.99
2022-09-18T09:21:19.609Z,16.41
2022-09-18T09:24:13.726Z,16.73
2022-09-18T09:26:50.851Z,16.37
2022-09-18T09:29:24.416Z,15.80
2022-09-18T09:32:00.214Z,16.08
2022-09-18T09:34:33.240Z,16.56
2022-09-18T09:37:17.807Z,16.72
2022-09-18T09:40:02.514Z,16.34
2022-09-18T09:42:46.303Z,15.84
2022-09-18T09:45:25.125Z,16.05
2022-09-18T09:48:03.696Z,17.07
2022-09-18T09:50:59.979Z,17.43
2022-09-18T09:53:34.628Z,16.36
2022-09-18T09:59:50.303Z,16.25
2022-09-18T10:02:35.562Z,16.34
2022-09-18T10:05:15.888Z,16.46
2022-09-18T10:07:52.132Z,16.11
2022-09-18T10:10:28.732Z,15.79
2022-09-18T10:13:03.725Z,15.80
2022-09-18T10:15:38.814Z,16.40
2022-09-18T10:18:16.453Z,16.33
2022-09-18T10:20:55.068Z,17.32
2022-09-18T10:23:31.803Z,16.74
2022-09-18T10:26:05.258Z,15.89
2022-09-18T10:28:34.384Z,16.49
2022-09-18T10:31:07.351Z,17.13
2022-09-18T10:33:43.905Z,15.06
2022-09-18T10:36:27.059Z,15.34
2022-09-18T10:39:02.841Z,15.25
2022-09-18T10:41:40.490Z,14.87
2022-09-18T10:44:26.058Z,15.95
2022-09-18T10:47:02.713Z,15.95
2022-09-18T10:49:34.571Z,16.65
2022-09-18T10:52:21.924Z,15.99
2022-09-18T10:55:12.658Z,15.67
2022-09-18T10:57:44.038Z,14.04
2022-09-18T11:00:37.876Z,14.32
2022-09-18T11:03:24.921Z,15.92
2022-09-18T11:05:58.254Z,16.47
2022-09-18T11:08:30.993Z,16.72
2022-09-18T11:11:05.278Z,16.76
2022-09-18T11:13:37.438Z,16.35
2022-09-18T11:16:07.524Z,15.81
2022-09-18T11:18:43.069Z,16.03
2022-09-18T11:21:11.441Z,15.66
2022-09-18T11:23:40.460Z,15.95
2022-09-18T11:26:19.598Z,15.57
2022-09-18T11:29:06.529Z,15.17
2022-09-18T11:31:46.912Z,15.56
2022-09-18T11:34:28.142Z,15.67
2022-09-18T11:37:01.306Z,16.19
2022-09-18T11:39:48.992Z,16.54
2022-09-18T11:42:18.880Z,16.46
2022-09-18T11:44:47.578Z,16.67
2022-09-18T11:47:38.204Z,16.15
2022-09-18T11:50:15.241Z,16.12
2022-09-18T11:52:46.456Z,16.27
2022-09-18T11:55:30.281Z,16.29
2022-09-18T11:58:03.492Z,15.38
2022-09-18T12:00:37.788Z,14.12
2022-09-18T12:03:17.941Z,13.70
2022-09-18T12:05:56.631Z,14.83
2022-09-18T12:08:34.979Z,15.53
2022-09-18T12:11:14.935Z,15.47
2022-09-18T12:13:53.843Z,15.62
2022-09-18T12:16:29.069Z,15.99
2022-09-18T12:19:06.109Z,16.29
2022-09-18T12:21:43.723Z,16.71
2022-09-18T12:24:15.173Z,16.76
2022-09-18T12:26:54.914Z,15.98
2022-09-18T12:29:37.134Z,15.94
2022-09-18T12:32:27.440Z,15.06
2022-09-18T12:35:03.894Z,14.63
2022-09-18T12:37:47.831Z,14.68
2022-09-18T12:40:37.868Z,14.20
2022-09-18T12:43:25.304Z,13.89
2022-09-18T12:46:13.568Z,14.98
2022-09-18T12:48:57.933Z,16.59
2022-09-18T12:51:38.848Z,16.73
2022-09-18T12:54:37.678Z,16.77
2022-09-18T12:57:41.828Z,16.79
2022-09-18T13:00:12.725Z,16.37
2022-09-18T13:02:55.850Z,15.93
2022-09-18T13:05:30.204Z,16.49
2022-09-18T13:08:05.669Z,16.12
2022-09-18T13:10:40.193Z,16.16
2022-09-18T13:13:16.034Z,16.62
2022-09-18T13:15:49.815Z,16.53
2022-09-18T13:18:29.655Z,16.33
2022-09-18T13:21:00.815Z,16.03
2022-09-18T13:23:35.103Z,15.89
2022-09-18T13:26:07.584Z,16.01
2022-09-18T13:28:37.701Z,16.28
2022-09-18T13:31:28.106Z,16.16
2022-09-18T13:33:59.629Z,16.07
2022-09-18T13:36:32.316Z,15.84
2022-09-18T13:39:06.043Z,16.02
2022-09-18T13:41:49.073Z,15.87
2022-09-18T13:44:21.837Z,15.03
2022-09-18T13:46:51.460Z,16.14
2022-09-18T13:49:28.464Z,16.11
2022-09-18T13:51:58.040Z,14.48
2022-09-18T13:54:29.996Z,13.96
2022-09-18T13:57:20.616Z,12.62
2022-09-18T13:59:55.739Z,11.55
2022-09-18T14:02:33.106Z,10.86
2022-09-18T14:05:05.678Z,10.66
2022-09-18T14:07:57.422Z,10.64
2022-09-18T14:10:30.564Z,11.69
2022-09-18T14:13:31.556Z,13.20
2022-09-18T14:16:08.850Z,14.30
2022-09-18T14:19:03.415Z,15.05
2022-09-18T14:21:34.673Z,15.56
2022-09-18T14:24:25.674Z,16.06
2022-09-18T14:27:42.321Z,16.41
2022-09-18T14:30:24.629Z,15.74
2022-09-18T14:33:05.888Z,15.63
2022-09-18T14:35:45.363Z,16.18
2022-09-18T14:38:29.102Z,16.31
2022-09-18T14:41:02.835Z,16.68
2022-09-18T14:43:34.714Z,17.24
2022-09-18T14:46:05.172Z,17.06
2022-09-18T14:48:38.608Z,17.07
2022-09-18T14:51:08.525Z,17.64
2022-09-18T14:53:45.094Z,16.93
2022-09-18T14:56:17.597Z,16.53
2022-09-18T14:58:50.538Z,16.95
2022-09-18T15:01:26.468Z,15.83
2022-09-18T15:04:00.148Z,16.05
2022-09-18T15:06:35.227Z,14.84
2022-09-18T15:09:09.576Z,12.59
2022-09-18T15:12:01.769Z,10.89
2022-09-18T15:14:40.558Z,9.82
2022-09-18T15:17:19.579Z,9.58
2022-09-18T15:20:02.861Z,9.46
2022-09-18T15:22:32.502Z,9.42
2022-09-18T15:25:02.190Z,9.45
2022-09-18T15:27:32.308Z,9.48
2022-09-18T15:30:04.299Z,9.58
2022-09-18T15:32:39.340Z,9.63
2022-09-18T15:35:09.919Z,9.65
2022-09-18T15:37:41.156Z,9.72
2022-09-18T15:40:19.094Z,9.71
2022-09-18T15:42:58.683Z,9.79
2022-09-18T15:45:30.334Z,9.85
2022-09-18T15:48:02.361Z,9.88
2022-09-18T15:50:59.345Z,9.84
2022-09-18T15:53:29.551Z,9.82
2022-09-18T15:56:09.856Z,9.74
2022-09-18T15:58:46.696Z,9.66
2022-09-18T16:01:41.070Z,9.56
2022-09-18T16:04:22.939Z,9.47
2022-09-18T16:07:01.954Z,9.52
2022-09-18T16:09:44.040Z,9.55
2022-09-18T16:12:35.047Z,9.49
2022-09-18T16:15:19.410Z,9.43
2022-09-18T16:18:02.104Z,9.39
2022-09-18T16:20:38.673Z,9.30
2022-09-18T16:23:24.478Z,9.29
2022-09-18T16:26:06.722Z,9.52
2022-09-18T16:28:42.663Z,10.00
2022-09-18T16:31:13.193Z,10.16
2022-09-18T16:33:55.656Z,10.95
2022-09-18T16:36:38.976Z,12.29
2022-09-18T16:39:11.822Z,13.16
2022-09-18T16:41:40.218Z,13.33
2022-09-18T16:44:11.235Z,12.97
2022-09-18T16:46:47.709Z,12.41
2022-09-18T16:49:21.743Z,12.34
2022-09-18T16:51:51.695Z,12.37
2022-09-18T16:54:26.140Z,12.25
2022-09-18T16:56:59.225Z,11.70
2022-09-18T16:59:36.548Z,11.17
2022-09-18T17:02:07.246Z,10.82
2022-09-18T17:04:36.069Z,10.60
2022-09-18T17:07:09.132Z,10.49
2022-09-18T17:09:47.528Z,10.41
2022-09-18T17:12:16.043Z,10.33
2022-09-18T17:14:47.181Z,10.26
2022-09-18T17:17:15.526Z,10.22
2022-09-18T17:19:44.199Z,10.18
2022-09-18T17:22:22.431Z,10.25
2022-09-18T17:24:54.891Z,10.30
2022-09-18T17:27:26.238Z,10.31
2022-09-18T17:29:54.539Z,10.37
2022-09-18T17:32:22.936Z,10.30
2022-09-18T17:34:51.428Z,10.24
2022-09-18T17:37:22.943Z,10.23
2022-09-18T17:39:53.248Z,10.20
2022-09-18T17:42:23.181Z,10.21
2022-09-18T17:44:52.006Z,10.17
2022-09-18T17:47:22.043Z,10.16
2022-09-18T17:49:50.847Z,10.11
2022-09-18T17:52:20.994Z,10.14
2022-09-18T17:54:52.708Z,10.14
2022-09-18T17:57:21.121Z,10.15
2022-09-18T17:59:52.354Z,10.12
2022-09-18T18:02:23.180Z,10.14
2022-09-18T18:04:51.858Z,10.16
2022-09-18T18:07:21.829Z,10.20
2022-09-18T18:09:52.799Z,10.25
2022-09-18T18:12:24.888Z,10.32
2022-09-18T18:14:54.690Z,10.38
2022-09-18T18:17:36.085Z,10.38
2022-09-18T18:20:05.827Z,10.43
2022-09-18T18:22:35.731Z,10.51
2022-09-18T18:25:04.333Z,10.55
2022-09-18T18:27:50.720Z,10.59
2022-09-18T18:30:19.240Z,10.61
2022-09-18T18:32:47.722Z,10.65
2022-09-18T18:35:16.226Z,10.69
2022-09-18T18:37:52.031Z,10.73
2022-09-18T18:40:22.103Z,10.77
2022-09-18T18:42:51.186Z,10.77
2022-09-18T18:45:20.183Z,10.80
2022-09-18T18:47:51.052Z,10.78
2022-09-18T18:50:21.907Z,10.81
2022-09-18T18:52:54.163Z,10.88
2022-09-18T18:55:22.761Z,10.86
2022-09-18T18:57:52.681Z,10.90
2022-09-18T19:00:21.748Z,10.90
2022-09-18T19:02:51.072Z,10.87
2022-09-18T19:05:25.060Z,10.88
2022-09-18T19:07:54.823Z,10.88
2022-09-18T19:10:23.764Z,10.87
2022-09-18T19:12:57.655Z,10.93
2022-09-18T19:15:27.079Z,10.99
2022-09-18T19:18:09.458Z,10.97
2022-09-18T19:20:55.363Z,11.02
2022-09-18T19:23:34.827Z,10.93
2022-09-18T19:26:07.654Z,10.92
2022-09-18T19:28:36.071Z,10.98
2022-09-18T19:31:05.599Z,11.01
2022-09-18T19:33:35.759Z,11.02
2022-09-18T19:36:08.817Z,10.96
2022-09-18T19:38:41.129Z,10.91
2022-09-18T19:41:18.041Z,10.90
2022-09-18T19:43:48.171Z,10.82
2022-09-18T19:46:24.134Z,10.75
2022-09-18T19:48:56.585Z,10.72
2022-09-18T19:51:26.643Z,10.65
2022-09-18T19:53:56.287Z,10.61
2022-09-18T19:56:42.277Z,10.64
2022-09-18T19:59:35.628Z,10.59
2022-09-18T20:02:20.836Z,10.60
2022-09-18T20:04:49.623Z,10.66
2022-09-18T20:07:19.711Z,10.59
2022-09-18T20:09:51.050Z,10.56
2022-09-18T20:12:20.273Z,10.51
2022-09-18T20:14:49.102Z,10.42
2022-09-18T20:17:18.197Z,10.39
2022-09-18T20:19:47.246Z,10.31
2022-09-18T20:22:19.679Z,10.32
2022-09-18T20:24:49.727Z,10.46
2022-09-18T20:27:18.367Z,10.49
2022-09-18T20:29:46.906Z,10.52
2022-09-18T20:32:16.673Z,10.51
2022-09-18T20:34:47.904Z,10.52
2022-09-18T20:37:17.418Z,10.44
2022-09-18T20:39:46.478Z,10.42
2022-09-18T20:42:16.570Z,10.41
2022-09-18T20:44:45.619Z,10.38
2022-09-18T20:47:18.303Z,10.37
2022-09-18T20:49:50.032Z,10.36
2022-09-18T20:52:19.033Z,10.34
2022-09-18T20:54:48.734Z,10.29
2022-09-18T20:57:21.825Z,10.26
2022-09-18T20:59:50.742Z,10.29
2022-09-18T21:02:19.809Z,10.34
2022-09-18T21:04:52.726Z,10.41
2022-09-18T21:07:21.549Z,10.42
2022-09-18T21:09:51.088Z,10.48
2022-09-18T21:12:21.548Z,10.53
2022-09-18T21:14:50.277Z,10.60
2022-09-18T21:17:19.949Z,10.65
2022-09-18T21:19:50.584Z,10.65
2022-09-18T21:22:19.658Z,10.59
2022-09-18T21:24:49.123Z,10.55
2022-09-18T21:27:21.834Z,10.55
2022-09-18T21:29:52.718Z,10.49
2022-09-18T21:32:22.123Z,10.42
2022-09-18T21:34:52.980Z,10.35
2022-09-18T21:37:24.920Z,10.34
2022-09-18T21:39:53.354Z,10.25
2022-09-18T21:42:21.727Z,10.19
2022-09-18T21:44:51.627Z,10.13
2022-09-18T21:47:21.427Z,10.05
2022-09-18T21:49:49.933Z,9.98
2022-09-18T21:52:22.615Z,9.95
2022-09-18T21:54:51.190Z,9.87
2022-09-18T21:57:20.692Z,9.77
2022-09-18T21:59:49.771Z,9.74
2022-09-18T22:02:21.392Z,9.77
2022-09-18T22:04:50.061Z,9.85
2022-09-18T22:07:18.977Z,9.96
2022-09-18T22:09:47.414Z,10.07
2022-09-18T22:12:18.946Z,10.13
2022-09-18T22:14:47.911Z,10.23
2022-09-18T22:17:16.999Z,10.23
2022-09-18T22:19:46.933Z,10.20
2022-09-18T22:22:15.510Z,10.19
2022-09-18T22:24:44.056Z,10.14
2022-09-18T22:27:13.313Z,10.08
2022-09-18T22:29:43.569Z,10.03
2022-09-18T22:32:12.625Z,10.03
2022-09-18T22:34:42.077Z,9.96
2022-09-18T22:37:12.699Z,9.91
2022-09-18T22:39:41.155Z,9.87
2022-09-18T22:42:09.760Z,9.80
2022-09-18T22:44:38.181Z,9.82
2022-09-18T22:47:06.739Z,9.82
2022-09-18T22:49:35.577Z,9.81
2022-09-18T22:52:04.533Z,9.85
2022-09-18T22:54:34.419Z,9.88
2022-09-18T22:57:03.644Z,9.90
2022-09-18T22:59:32.063Z,9.91
2022-09-18T23:02:02.686Z,9.92
2022-09-18T23:04:36.101Z,9.93
2022-09-18T23:07:04.691Z,9.98
2022-09-18T23:09:34.515Z,10.00
2022-09-18T23:12:03.396Z,10.08
2022-09-18T23:14:32.715Z,10.16
2022-09-18T23:17:04.380Z,10.21
2022-09-18T23:19:35.471Z,10.35
2022-09-18T23:22:04.447Z,10.77
2022-09-18T23:24:34.471Z,11.02
2022-09-18T23:27:02.950Z,11.26
2022-09-18T23:29:32.329Z,11.43
2022-09-18T23:32:04.701Z,11.46
2022-09-18T23:34:36.791Z,11.48
2022-09-18T23:37:07.769Z,11.55
2022-09-18T23:39:39.133Z,11.59
2022-09-18T23:42:09.234Z,11.64
2022-09-18T23:44:37.873Z,11.66
2022-09-18T23:47:06.576Z,11.75
2022-09-18T23:49:35.314Z,11.83
2022-09-18T23:52:04.087Z,11.81
2022-09-18T23:54:34.949Z,11.84
2022-09-18T23:57:07.444Z,11.88
2022-09-18T23:59:35.704Z,11.95
